Hlavní strana
METAR-TAF:

METAR-TAF

Letiště :

Bujumbura, Burundi

zeměpisná šířka: 03-19S, zeměpisná délka: 029-19E, výška: 782 m

Aktuální stav počasí

Zpráva byla vytvořena před 2 hodinami a 51 minutami, v 08:00 UTC
Teplota
Tlak 1018 hPa
Viditelnost: 7000 m
Skoro jasno ve výšce 2000 ft

METAR: HBBA 220800Z 18006 7000 FEW020 SCT30027/18 Q1018 NOSIG

Čas: 12:51 (10:51 UTC)

Předpověď počasí

Zpráva byla vytvořena před 5 hodinami a 51 minutami, v 05:00 UTC
Předpověď platná od 22 v 06 UTC do 23 v 12 UTC
Jižní vítr 15 kt s nárazy do 25 kt
Viditelnost: 8000 m
Skoro jasno ve výšce 3500 ft
Skoro jasno ve výšce 3500 ft
zákal, zákal

TAF: HBBA 220500Z 2206/2312 36002KT 5000 HZ NSC BECMG2207/2209 18015G25KT 8000 FEW035 BECMG2215/2217 18010KT 9000 NSC BECMG2220/2222 00000KT CAVOK BECMG2302/2304 36003KT 5000 HZ NSC BECMG2307/2309 18015G25KT 8000 FEW035

Stav a předpovědi počasí z více než 4 000 letišť (zprávy METAR a TAF).

Červené a žluté tečky na mapě představují dostupné meteorologické stanice.

Když kurzor umístíte na tečku, zobrazí se název stanice.

Pak kliknutím zobrazíte stav a předpověď počasí.

Chcete-li změnit mapu, kliknutím na zelené tlačítko se znaménkem +mapu přiblížíte, kliknutím na zelené tlačítko se znaménkem – mapu oddálíte a kliknutím na zelené šipky přejdete na sousední mapy.


METAR-TAF: